sensor_id;sensor_type;location;lat;lon;timestamp;P1;durP1;ratioP1;P2;durP2;ratioP2
66946;SDS011;53853;51.982;5.928;2022-09-30T00:00:56;8.43;;;5.78;;
66946;SDS011;53853;51.982;5.928;2022-09-30T00:03:27;7.80;;;7.00;;
66946;SDS011;53853;51.982;5.928;2022-09-30T00:05:57;9.18;;;5.93;;
66946;SDS011;53853;51.982;5.928;2022-09-30T00:08:31;8.98;;;7.10;;
66946;SDS011;53853;51.982;5.928;2022-09-30T00:11:01;9.38;;;6.63;;
66946;SDS011;53853;51.982;5.928;2022-09-30T00:13:34;8.55;;;6.85;;
66946;SDS011;53853;51.982;5.928;2022-09-30T00:16:06;8.93;;;6.47;;
66946;SDS011;53853;51.982;5.928;2022-09-30T00:18:37;9.38;;;6.35;;
66946;SDS011;53853;51.982;5.928;2022-09-30T00:21:09;8.55;;;6.63;;
66946;SDS011;53853;51.982;5.928;2022-09-30T00:23:43;8.25;;;6.28;;
66946;SDS011;53853;51.982;5.928;2022-09-30T00:26:14;9.75;;;6.63;;
66946;SDS011;53853;51.982;5.928;2022-09-30T00:28:48;7.68;;;6.43;;
66946;SDS011;53853;51.982;5.928;2022-09-30T00:31:20;9.63;;;6.30;;
66946;SDS011;53853;51.982;5.928;2022-09-30T00:33:51;9.63;;;7.18;;
66946;SDS011;53853;51.982;5.928;2022-09-30T00:36:35;7.47;;;6.00;;
66946;SDS011;53853;51.982;5.928;2022-09-30T00:39:11;7.72;;;6.65;;
66946;SDS011;53853;51.982;5.928;2022-09-30T00:41:43;8.02;;;6.63;;
66946;SDS011;53853;51.982;5.928;2022-09-30T00:47:24;7.82;;;6.43;;
66946;SDS011;53853;51.982;5.928;2022-09-30T00:50:04;7.68;;;5.85;;
66946;SDS011;53853;51.982;5.928;2022-09-30T00:52:43;8.23;;;6.53;;
66946;SDS011;53853;51.982;5.928;2022-09-30T00:55:22;9.30;;;6.50;;
66946;SDS011;53853;51.982;5.928;2022-09-30T00:57:59;8.10;;;6.38;;
66946;SDS011;53853;51.982;5.928;2022-09-30T01:00:31;12.55;;;6.80;;
66946;SDS011;53853;51.982;5.928;2022-09-30T01:03:01;6.90;;;6.05;;
66946;SDS011;53853;51.982;5.928;2022-09-30T01:05:33;8.27;;;6.63;;
66946;SDS011;53853;51.982;5.928;2022-09-30T01:08:04;7.10;;;6.05;;
66946;SDS011;53853;51.982;5.928;2022-09-30T01:10:38;7.28;;;6.15;;
66946;SDS011;53853;51.982;5.928;2022-09-30T01:13:08;8.07;;;6.85;;
66946;SDS011;53853;51.982;5.928;2022-09-30T01:15:47;8.55;;;6.28;;
66946;SDS011;53853;51.982;5.928;2022-09-30T01:18:36;8.38;;;7.07;;
66946;SDS011;53853;51.982;5.928;2022-09-30T01:24:34;8.63;;;6.10;;
66946;SDS011;53853;51.982;5.928;2022-09-30T01:27:25;7.35;;;6.28;;
66946;SDS011;53853;51.982;5.928;2022-09-30T01:30:11;7.68;;;5.97;;
66946;SDS011;53853;51.982;5.928;2022-09-30T01:35:59;7.25;;;5.75;;
66946;SDS011;53853;51.982;5.928;2022-09-30T01:38:54;7.15;;;6.30;;
66946;SDS011;53853;51.982;5.928;2022-09-30T01:41:33;9.35;;;6.55;;
66946;SDS011;53853;51.982;5.928;2022-09-30T01:44:13;8.70;;;6.47;;
66946;SDS011;53853;51.982;5.928;2022-09-30T01:46:49;7.25;;;5.43;;
66946;SDS011;53853;51.982;5.928;2022-09-30T01:49:26;6.97;;;5.35;;
66946;SDS011;53853;51.982;5.928;2022-09-30T01:52:00;6.75;;;5.55;;
66946;SDS011;53853;51.982;5.928;2022-09-30T01:54:36;8.55;;;5.72;;
66946;SDS011;53853;51.982;5.928;2022-09-30T01:57:12;6.22;;;5.63;;
66946;SDS011;53853;51.982;5.928;2022-09-30T01:59:48;7.10;;;6.18;;
66946;SDS011;53853;51.982;5.928;2022-09-30T02:02:24;8.57;;;6.22;;
66946;SDS011;53853;51.982;5.928;2022-09-30T02:05:00;10.43;;;6.93;;
66946;SDS011;53853;51.982;5.928;2022-09-30T02:07:35;7.72;;;6.80;;
66946;SDS011;53853;51.982;5.928;2022-09-30T02:10:11;10.95;;;6.05;;
66946;SDS011;53853;51.982;5.928;2022-09-30T02:12:49;8.45;;;5.20;;
66946;SDS011;53853;51.982;5.928;2022-09-30T02:15:25;8.15;;;5.93;;
66946;SDS011;53853;51.982;5.928;2022-09-30T02:18:03;7.90;;;5.90;;
66946;SDS011;53853;51.982;5.928;2022-09-30T02:20:42;6.97;;;6.07;;
66946;SDS011;53853;51.982;5.928;2022-09-30T02:23:15;8.20;;;6.65;;
66946;SDS011;53853;51.982;5.928;2022-09-30T02:25:51;7.25;;;5.45;;
66946;SDS011;53853;51.982;5.928;2022-09-30T02:28:31;6.63;;;5.13;;
66946;SDS011;53853;51.982;5.928;2022-09-30T02:31:05;7.07;;;5.80;;
66946;SDS011;53853;51.982;5.928;2022-09-30T02:33:37;7.70;;;6.00;;
66946;SDS011;53853;51.982;5.928;2022-09-30T02:36:16;7.90;;;5.57;;
66946;SDS011;53853;51.982;5.928;2022-09-30T02:38:53;6.13;;;5.28;;
66946;SDS011;53853;51.982;5.928;2022-09-30T02:41:28;6.88;;;6.03;;
66946;SDS011;53853;51.982;5.928;2022-09-30T02:44:05;6.93;;;5.60;;
66946;SDS011;53853;51.982;5.928;2022-09-30T02:46:38;6.13;;;4.95;;
66946;SDS011;53853;51.982;5.928;2022-09-30T02:49:15;5.57;;;4.78;;
66946;SDS011;53853;51.982;5.928;2022-09-30T02:51:55;6.82;;;5.13;;
66946;SDS011;53853;51.982;5.928;2022-09-30T02:54:38;6.43;;;5.13;;
66946;SDS011;53853;51.982;5.928;2022-09-30T02:57:21;7.68;;;5.65;;
66946;SDS011;53853;51.982;5.928;2022-09-30T02:59:58;7.05;;;5.50;;
66946;SDS011;53853;51.982;5.928;2022-09-30T03:02:29;8.07;;;6.32;;
66946;SDS011;53853;51.982;5.928;2022-09-30T03:04:59;8.27;;;5.35;;
66946;SDS011;53853;51.982;5.928;2022-09-30T03:07:32;7.55;;;5.90;;
66946;SDS011;53853;51.982;5.928;2022-09-30T03:10:05;6.35;;;4.57;;
66946;SDS011;53853;51.982;5.928;2022-09-30T03:12:45;7.28;;;5.68;;
66946;SDS011;53853;51.982;5.928;2022-09-30T03:18:10;6.30;;;5.13;;
66946;SDS011;53853;51.982;5.928;2022-09-30T03:21:07;6.95;;;4.80;;
66946;SDS011;53853;51.982;5.928;2022-09-30T03:23:58;7.38;;;5.38;;
66946;SDS011;53853;51.982;5.928;2022-09-30T03:26:52;7.57;;;6.03;;
66946;SDS011;53853;51.982;5.928;2022-09-30T03:29:30;7.22;;;5.65;;
66946;SDS011;53853;51.982;5.928;2022-09-30T03:32:09;8.52;;;6.25;;
66946;SDS011;53853;51.982;5.928;2022-09-30T03:34:58;7.15;;;5.82;;
66946;SDS011;53853;51.982;5.928;2022-09-30T03:37:42;8.38;;;5.70;;
66946;SDS011;53853;51.982;5.928;2022-09-30T03:40:24;7.80;;;6.18;;
66946;SDS011;53853;51.982;5.928;2022-09-30T03:43:02;7.35;;;5.70;;
66946;SDS011;53853;51.982;5.928;2022-09-30T03:45:36;7.55;;;5.57;;
66946;SDS011;53853;51.982;5.928;2022-09-30T03:48:14;8.18;;;5.85;;
66946;SDS011;53853;51.982;5.928;2022-09-30T03:50:45;8.70;;;5.47;;
66946;SDS011;53853;51.982;5.928;2022-09-30T03:53:16;7.30;;;5.00;;
66946;SDS011;53853;51.982;5.928;2022-09-30T03:55:50;9.45;;;5.90;;
66946;SDS011;53853;51.982;5.928;2022-09-30T03:58:20;7.53;;;5.63;;
66946;SDS011;53853;51.982;5.928;2022-09-30T04:00:52;6.90;;;5.28;;
66946;SDS011;53853;51.982;5.928;2022-09-30T04:03:23;7.18;;;5.43;;
66946;SDS011;53853;51.982;5.928;2022-09-30T04:05:53;6.72;;;5.57;;
66946;SDS011;53853;51.982;5.928;2022-09-30T04:08:24;9.15;;;6.00;;
66946;SDS011;53853;51.982;5.928;2022-09-30T04:10:56;6.82;;;5.63;;
66946;SDS011;53853;51.982;5.928;2022-09-30T04:13:26;7.22;;;4.82;;
66946;SDS011;53853;51.982;5.928;2022-09-30T04:15:56;7.88;;;5.60;;
66946;SDS011;53853;51.982;5.928;2022-09-30T04:18:26;6.88;;;5.70;;
66946;SDS011;53853;51.982;5.928;2022-09-30T04:20:57;9.27;;;6.55;;
66946;SDS011;53853;51.982;5.928;2022-09-30T04:23:27;10.00;;;6.03;;
66946;SDS011;53853;51.982;5.928;2022-09-30T04:25:59;6.10;;;4.97;;
66946;SDS011;53853;51.982;5.928;2022-09-30T04:28:30;8.83;;;6.00;;
66946;SDS011;53853;51.982;5.928;2022-09-30T04:31:00;7.18;;;5.40;;
66946;SDS011;53853;51.982;5.928;2022-09-30T04:33:31;7.70;;;5.63;;
66946;SDS011;53853;51.982;5.928;2022-09-30T04:36:01;7.28;;;5.60;;
66946;SDS011;53853;51.982;5.928;2022-09-30T04:38:32;7.43;;;5.85;;
66946;SDS011;53853;51.982;5.928;2022-09-30T04:41:06;6.60;;;5.70;;
66946;SDS011;53853;51.982;5.928;2022-09-30T04:43:40;8.05;;;6.25;;
66946;SDS011;53853;51.982;5.928;2022-09-30T04:46:11;8.82;;;6.13;;
66946;SDS011;53853;51.982;5.928;2022-09-30T04:48:41;7.40;;;5.93;;
66946;SDS011;53853;51.982;5.928;2022-09-30T04:51:13;7.65;;;6.03;;
66946;SDS011;53853;51.982;5.928;2022-09-30T04:53:43;6.60;;;5.25;;
66946;SDS011;53853;51.982;5.928;2022-09-30T04:56:17;7.85;;;5.10;;
66946;SDS011;53853;51.982;5.928;2022-09-30T04:58:47;9.50;;;6.22;;
66946;SDS011;53853;51.982;5.928;2022-09-30T05:01:17;7.50;;;5.93;;
66946;SDS011;53853;51.982;5.928;2022-09-30T05:03:47;7.07;;;6.13;;
66946;SDS011;53853;51.982;5.928;2022-09-30T05:06:17;7.50;;;6.38;;
66946;SDS011;53853;51.982;5.928;2022-09-30T05:08:47;8.05;;;6.03;;
66946;SDS011;53853;51.982;5.928;2022-09-30T05:11:20;8.45;;;6.50;;
66946;SDS011;53853;51.982;5.928;2022-09-30T05:13:50;11.40;;;7.95;;
66946;SDS011;53853;51.982;5.928;2022-09-30T05:16:20;12.00;;;9.43;;
66946;SDS011;53853;51.982;5.928;2022-09-30T05:18:52;11.02;;;9.45;;
66946;SDS011;53853;51.982;5.928;2022-09-30T05:21:22;12.02;;;9.55;;
66946;SDS011;53853;51.982;5.928;2022-09-30T05:23:53;11.90;;;8.98;;
66946;SDS011;53853;51.982;5.928;2022-09-30T05:26:25;13.10;;;9.75;;
66946;SDS011;53853;51.982;5.928;2022-09-30T05:28:55;15.40;;;11.20;;
66946;SDS011;53853;51.982;5.928;2022-09-30T05:31:26;13.77;;;10.45;;
66946;SDS011;53853;51.982;5.928;2022-09-30T05:33:56;12.85;;;9.68;;
66946;SDS011;53853;51.982;5.928;2022-09-30T05:36:26;13.73;;;10.38;;
66946;SDS011;53853;51.982;5.928;2022-09-30T05:38:56;12.93;;;8.27;;
66946;SDS011;53853;51.982;5.928;2022-09-30T05:41:28;10.80;;;8.23;;
66946;SDS011;53853;51.982;5.928;2022-09-30T05:43:58;10.57;;;8.18;;
66946;SDS011;53853;51.982;5.928;2022-09-30T05:46:28;11.27;;;7.75;;
66946;SDS011;53853;51.982;5.928;2022-09-30T05:48:58;12.27;;;7.75;;
66946;SDS011;53853;51.982;5.928;2022-09-30T05:51:28;9.52;;;7.85;;
66946;SDS011;53853;51.982;5.928;2022-09-30T05:53:58;13.90;;;8.50;;
66946;SDS011;53853;51.982;5.928;2022-09-30T05:56:31;9.27;;;7.45;;
66946;SDS011;53853;51.982;5.928;2022-09-30T05:59:03;8.45;;;6.80;;
66946;SDS011;53853;51.982;5.928;2022-09-30T06:01:33;8.07;;;6.18;;
66946;SDS011;53853;51.982;5.928;2022-09-30T06:04:03;8.95;;;6.90;;
66946;SDS011;53853;51.982;5.928;2022-09-30T06:06:33;9.95;;;7.70;;
66946;SDS011;53853;51.982;5.928;2022-09-30T06:09:03;9.27;;;8.10;;
66946;SDS011;53853;51.982;5.928;2022-09-30T06:11:36;11.43;;;6.47;;
66946;SDS011;53853;51.982;5.928;2022-09-30T06:14:07;10.20;;;8.02;;
66946;SDS011;53853;51.982;5.928;2022-09-30T06:16:37;8.73;;;7.05;;
66946;SDS011;53853;51.982;5.928;2022-09-30T06:19:07;9.77;;;7.22;;
66946;SDS011;53853;51.982;5.928;2022-09-30T06:21:37;9.55;;;6.78;;
66946;SDS011;53853;51.982;5.928;2022-09-30T06:24:07;9.98;;;7.47;;
66946;SDS011;53853;51.982;5.928;2022-09-30T06:26:40;10.20;;;8.30;;
66946;SDS011;53853;51.982;5.928;2022-09-30T06:29:10;11.60;;;8.30;;
66946;SDS011;53853;51.982;5.928;2022-09-30T06:31:40;10.88;;;7.25;;
66946;SDS011;53853;51.982;5.928;2022-09-30T06:34:10;10.45;;;6.68;;
66946;SDS011;53853;51.982;5.928;2022-09-30T06:36:40;10.60;;;7.93;;
66946;SDS011;53853;51.982;5.928;2022-09-30T06:39:09;15.80;;;8.45;;
66946;SDS011;53853;51.982;5.928;2022-09-30T06:41:42;13.80;;;8.00;;
66946;SDS011;53853;51.982;5.928;2022-09-30T06:44:23;11.65;;;8.15;;
66946;SDS011;53853;51.982;5.928;2022-09-30T06:46:53;9.35;;;7.75;;
66946;SDS011;53853;51.982;5.928;2022-09-30T06:49:24;8.85;;;6.95;;
66946;SDS011;53853;51.982;5.928;2022-09-30T06:51:54;11.40;;;7.90;;
66946;SDS011;53853;51.982;5.928;2022-09-30T06:54:25;8.00;;;6.72;;
66946;SDS011;53853;51.982;5.928;2022-09-30T06:56:58;10.30;;;7.30;;
66946;SDS011;53853;51.982;5.928;2022-09-30T06:59:28;12.25;;;7.57;;
66946;SDS011;53853;51.982;5.928;2022-09-30T07:01:57;8.35;;;7.00;;
66946;SDS011;53853;51.982;5.928;2022-09-30T07:04:28;8.50;;;6.90;;
66946;SDS011;53853;51.982;5.928;2022-09-30T07:06:58;10.95;;;7.95;;
66946;SDS011;53853;51.982;5.928;2022-09-30T07:09:27;9.63;;;7.32;;
66946;SDS011;53853;51.982;5.928;2022-09-30T07:12:00;9.02;;;8.05;;
66946;SDS011;53853;51.982;5.928;2022-09-30T07:14:31;8.43;;;7.40;;
66946;SDS011;53853;51.982;5.928;2022-09-30T07:17:01;11.85;;;9.68;;
66946;SDS011;53853;51.982;5.928;2022-09-30T07:19:33;11.02;;;9.52;;
66946;SDS011;53853;51.982;5.928;2022-09-30T07:22:03;10.32;;;9.23;;
66946;SDS011;53853;51.982;5.928;2022-09-30T07:24:45;14.15;;;11.70;;
66946;SDS011;53853;51.982;5.928;2022-09-30T07:27:17;12.93;;;10.77;;
66946;SDS011;53853;51.982;5.928;2022-09-30T07:29:47;13.27;;;10.57;;
66946;SDS011;53853;51.982;5.928;2022-09-30T07:32:17;13.90;;;11.48;;
66946;SDS011;53853;51.982;5.928;2022-09-30T07:34:48;12.50;;;10.73;;
66946;SDS011;53853;51.982;5.928;2022-09-30T07:37:20;15.25;;;12.68;;
66946;SDS011;53853;51.982;5.928;2022-09-30T07:39:51;16.13;;;14.18;;
66946;SDS011;53853;51.982;5.928;2022-09-30T07:42:24;16.13;;;13.48;;
66946;SDS011;53853;51.982;5.928;2022-09-30T07:44:55;16.60;;;13.63;;
66946;SDS011;53853;51.982;5.928;2022-09-30T07:47:26;19.42;;;14.85;;
66946;SDS011;53853;51.982;5.928;2022-09-30T07:49:56;19.48;;;16.40;;
66946;SDS011;53853;51.982;5.928;2022-09-30T07:52:26;20.83;;;16.98;;
66946;SDS011;53853;51.982;5.928;2022-09-30T07:54:56;21.23;;;16.58;;
66946;SDS011;53853;51.982;5.928;2022-09-30T07:57:28;20.08;;;16.95;;
66946;SDS011;53853;51.982;5.928;2022-09-30T07:59:58;20.00;;;17.88;;
66946;SDS011;53853;51.982;5.928;2022-09-30T08:02:37;18.85;;;16.85;;
66946;SDS011;53853;51.982;5.928;2022-09-30T08:05:07;26.80;;;21.02;;
66946;SDS011;53853;51.982;5.928;2022-09-30T08:07:38;20.42;;;17.73;;
66946;SDS011;53853;51.982;5.928;2022-09-30T08:10:09;19.27;;;17.17;;
66946;SDS011;53853;51.982;5.928;2022-09-30T08:12:41;18.90;;;17.00;;
66946;SDS011;53853;51.982;5.928;2022-09-30T08:15:11;18.02;;;16.13;;
66946;SDS011;53853;51.982;5.928;2022-09-30T08:17:41;17.90;;;16.02;;
66946;SDS011;53853;51.982;5.928;2022-09-30T08:20:11;17.55;;;15.75;;
66946;SDS011;53853;51.982;5.928;2022-09-30T08:22:40;17.73;;;15.93;;
66946;SDS011;53853;51.982;5.928;2022-09-30T08:25:10;26.13;;;20.27;;
66946;SDS011;53853;51.982;5.928;2022-09-30T08:27:43;20.77;;;18.75;;
66946;SDS011;53853;51.982;5.928;2022-09-30T08:30:12;18.15;;;15.75;;
66946;SDS011;53853;51.982;5.928;2022-09-30T08:32:42;19.95;;;16.73;;
66946;SDS011;53853;51.982;5.928;2022-09-30T08:35:12;17.90;;;16.17;;
66946;SDS011;53853;51.982;5.928;2022-09-30T08:37:42;19.65;;;17.55;;
66946;SDS011;53853;51.982;5.928;2022-09-30T08:40:19;27.85;;;23.73;;
66946;SDS011;53853;51.982;5.928;2022-09-30T08:42:58;25.05;;;22.45;;
66946;SDS011;53853;51.982;5.928;2022-09-30T08:45:40;20.90;;;18.75;;
66946;SDS011;53853;51.982;5.928;2022-09-30T08:48:21;18.98;;;17.15;;
66946;SDS011;53853;51.982;5.928;2022-09-30T08:51:03;18.55;;;15.20;;
66946;SDS011;53853;51.982;5.928;2022-09-30T08:56:18;19.88;;;17.85;;
66946;SDS011;53853;51.982;5.928;2022-09-30T08:58:55;16.27;;;14.55;;
66946;SDS011;53853;51.982;5.928;2022-09-30T09:01:30;24.90;;;22.23;;
66946;SDS011;53853;51.982;5.928;2022-09-30T09:04:03;18.77;;;16.90;;
66946;SDS011;53853;51.982;5.928;2022-09-30T09:06:36;16.30;;;14.18;;
66946;SDS011;53853;51.982;5.928;2022-09-30T09:12:14;9.93;;;9.02;;
66946;SDS011;53853;51.982;5.928;2022-09-30T09:15:03;12.35;;;11.05;;
66946;SDS011;53853;51.982;5.928;2022-09-30T09:17:57;12.98;;;11.65;;
66946;SDS011;53853;51.982;5.928;2022-09-30T09:20:47;12.13;;;11.00;;
66946;SDS011;53853;51.982;5.928;2022-09-30T09:23:23;15.02;;;13.52;;
66946;SDS011;53853;51.982;5.928;2022-09-30T09:25:53;11.18;;;10.18;;
66946;SDS011;53853;51.982;5.928;2022-09-30T09:28:26;11.57;;;10.43;;
66946;SDS011;53853;51.982;5.928;2022-09-30T09:31:04;13.32;;;12.13;;
66946;SDS011;53853;51.982;5.928;2022-09-30T09:33:42;19.52;;;17.52;;
66946;SDS011;53853;51.982;5.928;2022-09-30T09:36:14;15.57;;;14.05;;
66946;SDS011;53853;51.982;5.928;2022-09-30T09:39:00;11.05;;;9.95;;
66946;SDS011;53853;51.982;5.928;2022-09-30T09:41:48;19.92;;;17.83;;
66946;SDS011;53853;51.982;5.928;2022-09-30T09:44:26;12.98;;;11.70;;
66946;SDS011;53853;51.982;5.928;2022-09-30T09:47:07;19.02;;;17.23;;
66946;SDS011;53853;51.982;5.928;2022-09-30T09:49:41;17.70;;;15.98;;
66946;SDS011;53853;51.982;5.928;2022-09-30T09:52:25;18.60;;;16.80;;
66946;SDS011;53853;51.982;5.928;2022-09-30T09:55:20;18.42;;;16.52;;
66946;SDS011;53853;51.982;5.928;2022-09-30T09:58:03;15.38;;;13.98;;
66946;SDS011;53853;51.982;5.928;2022-09-30T10:00:34;13.25;;;10.60;;
66946;SDS011;53853;51.982;5.928;2022-09-30T10:03:19;11.80;;;10.60;;
66946;SDS011;53853;51.982;5.928;2022-09-30T10:06:01;14.45;;;12.95;;
66946;SDS011;53853;51.982;5.928;2022-09-30T10:08:34;12.50;;;11.30;;
66946;SDS011;53853;51.982;5.928;2022-09-30T10:11:06;13.00;;;11.70;;
66946;SDS011;53853;51.982;5.928;2022-09-30T10:13:48;13.40;;;11.80;;
66946;SDS011;53853;51.982;5.928;2022-09-30T10:16:27;15.77;;;14.10;;
66946;SDS011;53853;51.982;5.928;2022-09-30T10:19:03;13.77;;;12.38;;
66946;SDS011;53853;51.982;5.928;2022-09-30T10:21:47;16.33;;;14.73;;
66946;SDS011;53853;51.982;5.928;2022-09-30T10:24:18;10.02;;;9.02;;
66946;SDS011;53853;51.982;5.928;2022-09-30T10:26:55;10.05;;;9.15;;
66946;SDS011;53853;51.982;5.928;2022-09-30T10:29:26;15.48;;;14.02;;
66946;SDS011;53853;51.982;5.928;2022-09-30T10:31:57;12.77;;;11.57;;
66946;SDS011;53853;51.982;5.928;2022-09-30T10:34:31;11.32;;;10.18;;
66946;SDS011;53853;51.982;5.928;2022-09-30T10:37:06;16.38;;;14.77;;
66946;SDS011;53853;51.982;5.928;2022-09-30T10:39:40;13.23;;;11.65;;
66946;SDS011;53853;51.982;5.928;2022-09-30T10:42:17;13.90;;;12.57;;
66946;SDS011;53853;51.982;5.928;2022-09-30T10:44:51;11.18;;;9.82;;
66946;SDS011;53853;51.982;5.928;2022-09-30T10:47:23;15.02;;;13.55;;
66946;SDS011;53853;51.982;5.928;2022-09-30T10:49:58;15.13;;;13.52;;
66946;SDS011;53853;51.982;5.928;2022-09-30T10:52:32;12.45;;;11.25;;
66946;SDS011;53853;51.982;5.928;2022-09-30T10:55:05;11.60;;;10.40;;
66946;SDS011;53853;51.982;5.928;2022-09-30T10:57:37;14.52;;;13.13;;
66946;SDS011;53853;51.982;5.928;2022-09-30T11:00:10;11.50;;;10.30;;
66946;SDS011;53853;51.982;5.928;2022-09-30T11:02:48;10.38;;;9.35;;
66946;SDS011;53853;51.982;5.928;2022-09-30T11:05:26;14.70;;;8.75;;
66946;SDS011;53853;51.982;5.928;2022-09-30T11:07:59;12.80;;;11.52;;
66946;SDS011;53853;51.982;5.928;2022-09-30T11:10:33;10.10;;;8.45;;
66946;SDS011;53853;51.982;5.928;2022-09-30T11:13:11;9.93;;;8.98;;
66946;SDS011;53853;51.982;5.928;2022-09-30T11:15:49;12.80;;;11.70;;
66946;SDS011;53853;51.982;5.928;2022-09-30T11:18:28;10.82;;;9.82;;
66946;SDS011;53853;51.982;5.928;2022-09-30T11:21:08;9.32;;;8.27;;
66946;SDS011;53853;51.982;5.928;2022-09-30T11:23:45;9.05;;;7.40;;
66946;SDS011;53853;51.982;5.928;2022-09-30T11:26:24;11.75;;;10.65;;
66946;SDS011;53853;51.982;5.928;2022-09-30T11:29:14;11.95;;;10.70;;
66946;SDS011;53853;51.982;5.928;2022-09-30T11:32:06;12.35;;;11.07;;
66946;SDS011;53853;51.982;5.928;2022-09-30T11:34:48;12.10;;;10.85;;
66946;SDS011;53853;51.982;5.928;2022-09-30T11:37:32;10.07;;;8.98;;
66946;SDS011;53853;51.982;5.928;2022-09-30T11:40:18;11.13;;;10.02;;
66946;SDS011;53853;51.982;5.928;2022-09-30T11:43:00;14.00;;;11.80;;
66946;SDS011;53853;51.982;5.928;2022-09-30T11:45:55;12.07;;;10.95;;
66946;SDS011;53853;51.982;5.928;2022-09-30T11:51:54;11.23;;;10.02;;
66946;SDS011;53853;51.982;5.928;2022-09-30T11:54:36;12.95;;;11.75;;
66946;SDS011;53853;51.982;5.928;2022-09-30T11:57:26;14.07;;;12.68;;
66946;SDS011;53853;51.982;5.928;2022-09-30T12:00:05;11.73;;;10.52;;
66946;SDS011;53853;51.982;5.928;2022-09-30T12:02:43;13.38;;;11.55;;
66946;SDS011;53853;51.982;5.928;2022-09-30T12:05:16;11.30;;;10.18;;
66946;SDS011;53853;51.982;5.928;2022-09-30T12:07:53;15.23;;;13.63;;
66946;SDS011;53853;51.982;5.928;2022-09-30T12:10:30;13.30;;;11.90;;
66946;SDS011;53853;51.982;5.928;2022-09-30T12:13:03;13.80;;;12.40;;
66946;SDS011;53853;51.982;5.928;2022-09-30T12:15:39;12.80;;;11.18;;
66946;SDS011;53853;51.982;5.928;2022-09-30T12:18:11;11.82;;;10.73;;
66946;SDS011;53853;51.982;5.928;2022-09-30T12:20:45;13.82;;;12.50;;
66946;SDS011;53853;51.982;5.928;2022-09-30T12:23:19;14.02;;;12.38;;
66946;SDS011;53853;51.982;5.928;2022-09-30T12:25:58;11.40;;;10.20;;
66946;SDS011;53853;51.982;5.928;2022-09-30T12:31:18;12.50;;;10.55;;
66946;SDS011;53853;51.982;5.928;2022-09-30T12:34:04;10.70;;;9.60;;
66946;SDS011;53853;51.982;5.928;2022-09-30T12:36:55;11.52;;;10.00;;
66946;SDS011;53853;51.982;5.928;2022-09-30T12:39:47;7.40;;;6.60;;
66946;SDS011;53853;51.982;5.928;2022-09-30T12:42:45;7.65;;;6.88;;
66946;SDS011;53853;51.982;5.928;2022-09-30T12:45:52;7.18;;;6.45;;
66946;SDS011;53853;51.982;5.928;2022-09-30T12:48:43;5.90;;;4.28;;
66946;SDS011;53853;51.982;5.928;2022-09-30T12:51:22;13.65;;;6.25;;
66946;SDS011;53853;51.982;5.928;2022-09-30T12:53:58;4.93;;;4.00;;
66946;SDS011;53853;51.982;5.928;2022-09-30T12:56:30;5.57;;;4.60;;
66946;SDS011;53853;51.982;5.928;2022-09-30T12:59:05;3.78;;;3.17;;
66946;SDS011;53853;51.982;5.928;2022-09-30T13:01:35;6.32;;;4.18;;
66946;SDS011;53853;51.982;5.928;2022-09-30T13:04:16;4.00;;;3.53;;
66946;SDS011;53853;51.982;5.928;2022-09-30T13:07:12;5.35;;;4.72;;
66946;SDS011;53853;51.982;5.928;2022-09-30T13:09:59;4.20;;;3.35;;
66946;SDS011;53853;51.982;5.928;2022-09-30T13:12:46;3.90;;;3.13;;
66946;SDS011;53853;51.982;5.928;2022-09-30T13:21:18;4.20;;;2.58;;
66946;SDS011;53853;51.982;5.928;2022-09-30T13:23:54;5.00;;;2.30;;
66946;SDS011;53853;51.982;5.928;2022-09-30T13:26:31;4.00;;;2.30;;
66946;SDS011;53853;51.982;5.928;2022-09-30T13:32:12;4.32;;;2.08;;
66946;SDS011;53853;51.982;5.928;2022-09-30T13:35:14;3.53;;;2.08;;
66946;SDS011;53853;51.982;5.928;2022-09-30T13:40:45;2.15;;;1.50;;
66946;SDS011;53853;51.982;5.928;2022-09-30T13:43:19;4.55;;;2.55;;
66946;SDS011;53853;51.982;5.928;2022-09-30T13:45:54;2.78;;;1.95;;
66946;SDS011;53853;51.982;5.928;2022-09-30T13:48:31;3.00;;;2.00;;
66946;SDS011;53853;51.982;5.928;2022-09-30T13:51:04;2.38;;;1.73;;
66946;SDS011;53853;51.982;5.928;2022-09-30T13:53:40;4.55;;;2.00;;
66946;SDS011;53853;51.982;5.928;2022-09-30T13:56:15;3.58;;;2.22;;
66946;SDS011;53853;51.982;5.928;2022-09-30T13:58:54;5.38;;;2.10;;
66946;SDS011;53853;51.982;5.928;2022-09-30T14:01:42;2.53;;;1.60;;
66946;SDS011;53853;51.982;5.928;2022-09-30T14:04:40;3.30;;;1.95;;
66946;SDS011;53853;51.982;5.928;2022-09-30T14:07:29;2.40;;;1.42;;
66946;SDS011;53853;51.982;5.928;2022-09-30T14:10:17;4.45;;;2.38;;
66946;SDS011;53853;51.982;5.928;2022-09-30T14:15:50;3.63;;;3.03;;
66946;SDS011;53853;51.982;5.928;2022-09-30T14:18:46;4.50;;;2.17;;
66946;SDS011;53853;51.982;5.928;2022-09-30T14:21:36;4.05;;;1.90;;
66946;SDS011;53853;51.982;5.928;2022-09-30T14:24:11;2.63;;;1.42;;
66946;SDS011;53853;51.982;5.928;2022-09-30T14:29:52;3.55;;;2.17;;
66946;SDS011;53853;51.982;5.928;2022-09-30T14:32:29;5.60;;;2.17;;
66946;SDS011;53853;51.982;5.928;2022-09-30T14:35:03;2.90;;;1.42;;
66946;SDS011;53853;51.982;5.928;2022-09-30T14:37:39;2.58;;;1.70;;
66946;SDS011;53853;51.982;5.928;2022-09-30T14:40:14;3.53;;;1.35;;
66946;SDS011;53853;51.982;5.928;2022-09-30T14:42:45;2.63;;;1.40;;
66946;SDS011;53853;51.982;5.928;2022-09-30T14:45:17;2.50;;;1.55;;
66946;SDS011;53853;51.982;5.928;2022-09-30T14:47:52;3.97;;;1.90;;
66946;SDS011;53853;51.982;5.928;2022-09-30T14:50:25;4.15;;;2.17;;
66946;SDS011;53853;51.982;5.928;2022-09-30T14:53:01;3.53;;;2.13;;
66946;SDS011;53853;51.982;5.928;2022-09-30T14:55:32;2.65;;;1.92;;
66946;SDS011;53853;51.982;5.928;2022-09-30T15:01:00;3.47;;;1.85;;
66946;SDS011;53853;51.982;5.928;2022-09-30T15:03:34;3.45;;;1.85;;
66946;SDS011;53853;51.982;5.928;2022-09-30T15:06:15;4.90;;;1.60;;
66946;SDS011;53853;51.982;5.928;2022-09-30T15:08:49;4.05;;;1.92;;
66946;SDS011;53853;51.982;5.928;2022-09-30T15:11:28;3.70;;;1.40;;
66946;SDS011;53853;51.982;5.928;2022-09-30T15:14:01;2.33;;;1.33;;
66946;SDS011;53853;51.982;5.928;2022-09-30T15:16:33;3.40;;;1.80;;
66946;SDS011;53853;51.982;5.928;2022-09-30T15:19:14;2.22;;;1.40;;
66946;SDS011;53853;51.982;5.928;2022-09-30T15:21:47;2.67;;;1.38;;
66946;SDS011;53853;51.982;5.928;2022-09-30T15:24:23;4.53;;;1.70;;
66946;SDS011;53853;51.982;5.928;2022-09-30T15:26:56;3.85;;;1.75;;
66946;SDS011;53853;51.982;5.928;2022-09-30T15:29:27;4.18;;;1.83;;
66946;SDS011;53853;51.982;5.928;2022-09-30T15:31:58;4.10;;;1.55;;
66946;SDS011;53853;51.982;5.928;2022-09-30T15:34:55;3.58;;;2.03;;
66946;SDS011;53853;51.982;5.928;2022-09-30T15:37:44;2.58;;;1.10;;
66946;SDS011;53853;51.982;5.928;2022-09-30T15:40:32;5.60;;;1.83;;
66946;SDS011;53853;51.982;5.928;2022-09-30T15:43:29;4.72;;;1.60;;
66946;SDS011;53853;51.982;5.928;2022-09-30T15:46:17;2.28;;;1.40;;
66946;SDS011;53853;51.982;5.928;2022-09-30T15:52:29;4.40;;;1.80;;
66946;SDS011;53853;51.982;5.928;2022-09-30T15:55:39;4.70;;;2.35;;
66946;SDS011;53853;51.982;5.928;2022-09-30T16:01:08;4.13;;;2.55;;
66946;SDS011;53853;51.982;5.928;2022-09-30T16:03:49;4.03;;;2.22;;
66946;SDS011;53853;51.982;5.928;2022-09-30T16:06:26;3.97;;;2.03;;
66946;SDS011;53853;51.982;5.928;2022-09-30T16:08:59;3.72;;;2.40;;
66946;SDS011;53853;51.982;5.928;2022-09-30T16:11:36;6.03;;;2.47;;
66946;SDS011;53853;51.982;5.928;2022-09-30T16:14:15;3.05;;;1.67;;
66946;SDS011;53853;51.982;5.928;2022-09-30T16:16:47;2.47;;;1.48;;
66946;SDS011;53853;51.982;5.928;2022-09-30T16:19:19;3.03;;;1.58;;
66946;SDS011;53853;51.982;5.928;2022-09-30T16:21:52;2.95;;;1.80;;